createdAt,value
2022-07-25T00:01:39.533Z,101020.19
2022-07-25T00:06:43.515Z,101016.03
2022-07-25T00:11:46.599Z,101004.03
2022-07-25T00:16:50.756Z,100984.66
2022-07-25T00:21:53.692Z,100949.94
2022-07-25T00:26:56.530Z,100976.22
2022-07-25T00:32:00.823Z,100968.22
2022-07-25T00:37:06.101Z,100958.91
2022-07-25T00:42:09.553Z,100953.06
2022-07-25T00:47:13.729Z,100943.72
2022-07-25T00:52:16.580Z,100942.03
2022-07-25T00:57:19.420Z,100935.84
2022-07-25T01:02:24.226Z,100930.25
2022-07-25T01:07:27.341Z,100923.94
2022-07-25T01:12:30.326Z,100926.00
2022-07-25T01:17:34.695Z,100909.84
2022-07-25T01:22:38.988Z,100905.38
2022-07-25T01:27:42.942Z,100900.41
2022-07-25T01:32:46.168Z,100881.00
2022-07-25T01:37:50.375Z,100896.41
2022-07-25T01:42:53.263Z,100896.16
2022-07-25T01:47:56.949Z,100872.53
2022-07-25T01:53:01.510Z,100875.78
2022-07-25T01:58:06.333Z,100857.22
2022-07-25T02:03:28.167Z,100825.69
2022-07-25T02:08:32.857Z,100832.63
2022-07-25T02:13:36.630Z,100826.31
2022-07-25T02:18:40.773Z,100819.78
2022-07-25T02:23:46.352Z,100818.56
2022-07-25T02:28:50.462Z,100808.00
2022-07-25T02:33:53.311Z,100808.25
2022-07-25T02:38:57.513Z,100809.31
2022-07-25T02:44:00.527Z,100798.91
2022-07-25T02:49:05.782Z,100794.63
2022-07-25T02:54:09.991Z,100791.16
2022-07-25T02:59:13.535Z,100794.41
2022-07-25T03:04:17.105Z,100763.38
2022-07-25T03:09:21.602Z,100764.59
2022-07-25T03:14:24.433Z,100752.47
2022-07-25T03:19:27.348Z,100770.31
2022-07-25T03:24:31.614Z,100778.75
2022-07-25T03:29:34.705Z,100784.22
2022-07-25T03:34:38.831Z,100778.66
2022-07-25T03:39:43.366Z,100784.19
2022-07-25T03:44:46.250Z,100790.50
2022-07-25T03:49:49.181Z,100785.66
2022-07-25T03:54:53.668Z,100787.41
2022-07-25T03:59:56.551Z,100783.13
2022-07-25T04:05:01.928Z,100777.56
2022-07-25T04:10:07.266Z,100768.75
2022-07-25T04:15:10.845Z,100772.31
2022-07-25T04:20:13.882Z,100772.00
2022-07-25T04:25:18.167Z,100747.78
2022-07-25T04:30:23.885Z,100768.97
2022-07-25T04:35:27.751Z,100765.28
2022-07-25T04:40:32.033Z,100754.81
2022-07-25T04:45:35.650Z,100754.28
2022-07-25T04:50:38.959Z,100746.53
2022-07-25T05:01:08.412Z,100736.13
2022-07-25T05:06:11.415Z,100746.09
2022-07-25T05:11:18.097Z,100744.28
2022-07-25T05:16:20.973Z,100746.94
2022-07-25T05:21:23.910Z,100746.91
2022-07-25T05:26:28.073Z,100748.69
2022-07-25T05:31:30.909Z,100745.19
2022-07-25T05:36:34.017Z,100745.19
2022-07-25T05:41:38.421Z,100739.84
2022-07-25T05:46:41.295Z,100737.22
2022-07-25T05:51:44.192Z,100736.25
2022-07-25T05:56:48.362Z,100743.84
2022-07-25T06:01:52.512Z,100732.09
2022-07-25T06:06:55.358Z,100748.50
2022-07-25T06:12:01.149Z,100746.81
2022-07-25T06:17:05.577Z,100756.78
2022-07-25T06:22:09.399Z,100768.28
2022-07-25T06:27:17.256Z,100762.19
2022-07-25T06:32:23.405Z,100771.97
2022-07-25T06:37:28.235Z,100770.47
2022-07-25T06:42:33.435Z,100735.28
2022-07-25T06:47:36.391Z,100761.22
2022-07-25T06:52:39.403Z,100734.16
2022-07-25T06:57:44.458Z,100764.84
2022-07-25T07:02:53.075Z,100753.81
2022-07-25T07:07:56.070Z,100758.88
2022-07-25T07:13:08.179Z,100761.69
2022-07-25T07:18:11.041Z,100770.06
2022-07-25T07:23:17.081Z,100767.41
2022-07-25T07:28:22.770Z,100779.09
2022-07-25T07:33:25.597Z,100773.19
2022-07-25T07:38:28.385Z,100784.59
2022-07-25T07:43:32.693Z,100789.41
2022-07-25T07:48:36.138Z,100780.75
2022-07-25T07:53:56.539Z,100771.28
2022-07-25T07:59:00.905Z,100777.59
2022-07-25T08:04:03.785Z,100750.03
2022-07-25T08:09:07.174Z,100777.72
2022-07-25T08:14:11.687Z,100739.09
2022-07-25T08:19:14.498Z,100766.41
2022-07-25T08:24:18.386Z,100769.25
2022-07-25T08:29:27.774Z,100748.75
2022-07-25T08:34:31.220Z,100762.25
2022-07-25T08:39:59.906Z,100752.91
2022-07-25T08:45:06.630Z,100763.13
2022-07-25T08:50:11.955Z,100762.16
2022-07-25T08:55:20.045Z,100781.69
2022-07-25T09:00:26.327Z,100772.47
2022-07-25T09:05:30.443Z,100775.59
2022-07-25T09:10:36.034Z,100778.28
2022-07-25T09:15:41.988Z,100787.00
2022-07-25T09:21:14.576Z,100788.44
2022-07-25T09:26:18.076Z,100788.81
2022-07-25T09:31:22.833Z,100794.91
2022-07-25T09:36:26.139Z,100795.72
2022-07-25T09:41:35.335Z,100792.59
2022-07-25T09:46:39.638Z,100816.19
2022-07-25T09:51:43.298Z,100826.31
2022-07-25T09:56:46.176Z,100844.53
2022-07-25T10:01:56.916Z,100834.53
2022-07-25T10:07:05.244Z,100805.78
2022-07-25T10:12:10.532Z,100829.09
2022-07-25T10:17:25.220Z,100811.09
2022-07-25T10:22:55.222Z,100778.72
2022-07-25T10:28:03.726Z,100853.19
2022-07-25T10:33:14.313Z,100852.63
2022-07-25T10:38:25.410Z,100827.25
2022-07-25T10:43:52.294Z,100860.66
2022-07-25T10:49:00.747Z,100858.44
2022-07-25T10:54:13.993Z,100866.88
2022-07-25T10:59:30.377Z,100875.56
2022-07-25T11:04:34.591Z,100861.31
2022-07-25T11:09:37.616Z,100866.50
2022-07-25T11:14:42.725Z,100858.91
2022-07-25T11:19:56.086Z,100847.09
2022-07-25T11:24:59.573Z,100850.78
2022-07-25T11:30:09.520Z,100867.56
2022-07-25T11:35:16.961Z,100869.91
2022-07-25T11:40:21.435Z,100876.56
2022-07-25T11:45:25.553Z,100899.25
2022-07-25T11:50:33.255Z,100883.09
2022-07-25T11:55:40.196Z,100900.78
2022-07-25T12:00:46.420Z,100896.44
2022-07-25T12:05:51.009Z,100887.53
2022-07-25T12:10:56.274Z,100890.34
2022-07-25T12:16:00.673Z,100871.16
2022-07-25T12:21:07.373Z,100901.41
2022-07-25T12:26:11.471Z,100893.53
2022-07-25T12:31:14.396Z,100896.41
2022-07-25T12:36:18.700Z,100887.38
2022-07-25T12:41:23.499Z,100881.44
2022-07-25T12:46:26.446Z,100896.88
2022-07-25T12:51:30.872Z,100880.59
2022-07-25T12:56:33.762Z,100903.16
2022-07-25T13:01:36.725Z,100896.25
2022-07-25T13:06:41.089Z,100903.09
2022-07-25T13:11:44.100Z,100906.81
2022-07-25T13:17:07.681Z,100909.53
2022-07-25T13:22:12.641Z,100897.53
2022-07-25T13:27:15.493Z,100914.84
2022-07-25T13:32:19.109Z,100904.31
2022-07-25T13:37:23.497Z,100912.94
2022-07-25T13:42:28.776Z,100931.47
2022-07-25T13:47:35.620Z,100916.56
2022-07-25T13:52:39.905Z,100966.22
2022-07-25T13:57:42.781Z,100933.28
2022-07-25T14:02:46.600Z,100943.75
2022-07-25T14:07:50.849Z,100951.06
2022-07-25T14:12:54.118Z,100945.16
2022-07-25T14:17:56.981Z,100945.41
2022-07-25T14:23:01.523Z,100945.38
2022-07-25T14:28:04.925Z,100932.22
2022-07-25T14:33:07.773Z,100942.66
2022-07-25T14:38:12.397Z,100939.00
2022-07-25T14:43:17.993Z,100947.53
2022-07-25T14:48:21.230Z,100945.88
2022-07-25T14:53:25.498Z,100950.44
2022-07-25T14:58:28.399Z,100957.38
2022-07-25T15:03:31.352Z,100961.81
2022-07-25T15:08:35.878Z,100965.00
2022-07-25T15:13:38.840Z,100967.09
2022-07-25T15:19:05.343Z,100968.06
2022-07-25T15:24:07.154Z,100960.97
2022-07-25T15:29:11.904Z,100961.34
2022-07-25T15:34:14.973Z,100969.03
2022-07-25T15:39:19.560Z,100975.25
2022-07-25T15:44:22.446Z,100977.63
2022-07-25T15:49:25.758Z,100980.84
2022-07-25T15:54:30.029Z,100983.59
2022-07-25T15:59:32.990Z,100987.06
2022-07-25T16:04:35.747Z,100979.13
2022-07-25T16:09:39.978Z,100979.28
2022-07-25T16:14:45.423Z,100984.22
2022-07-25T16:19:48.643Z,100963.31
2022-07-25T16:24:53.109Z,100991.22
2022-07-25T16:29:56.289Z,100998.09
2022-07-25T16:34:59.405Z,100986.19
2022-07-25T16:40:04.053Z,100993.78
2022-07-25T16:45:08.020Z,100994.72
2022-07-25T16:50:10.996Z,100973.56
2022-07-25T16:55:15.218Z,100996.84
2022-07-25T17:00:18.433Z,101000.53
2022-07-25T17:05:21.385Z,101002.25
2022-07-25T17:10:25.770Z,101016.28
2022-07-25T17:15:28.752Z,101015.88
2022-07-25T17:20:31.611Z,101011.34
2022-07-25T17:25:35.991Z,101016.44
2022-07-25T17:30:38.964Z,101020.94
2022-07-25T17:35:41.900Z,101028.97
2022-07-25T17:40:49.045Z,101025.28
2022-07-25T17:45:51.900Z,101032.00
2022-07-25T17:50:55.877Z,101033.72
2022-07-25T17:56:00.097Z,101017.91
2022-07-25T18:01:09.892Z,101048.75
2022-07-25T18:06:13.531Z,101048.50
2022-07-25T18:11:17.662Z,101046.00
2022-07-25T18:16:20.594Z,101061.38
2022-07-25T18:21:24.873Z,101052.31
2022-07-25T18:26:29.479Z,101058.38
2022-07-25T18:31:32.495Z,101055.72
2022-07-25T18:36:36.853Z,101057.94
2022-07-25T18:41:41.095Z,101051.13
2022-07-25T18:46:45.679Z,101055.19
2022-07-25T18:51:48.659Z,101067.25
2022-07-25T18:56:53.037Z,101067.81
2022-07-25T19:01:56.607Z,100987.84
2022-07-25T19:06:59.522Z,101044.75
2022-07-25T19:12:03.819Z,101051.09
2022-07-25T19:17:06.942Z,101077.28
2022-07-25T19:22:09.867Z,101071.38
2022-07-25T19:27:14.534Z,101081.06
2022-07-25T19:32:18.217Z,101092.94
2022-07-25T19:37:21.559Z,101086.41
2022-07-25T19:42:25.743Z,101094.94
2022-07-25T19:47:28.669Z,101122.75
2022-07-25T19:52:31.570Z,101115.47
2022-07-25T19:57:35.857Z,101122.22
2022-07-25T20:02:38.969Z,101126.84
2022-07-25T20:07:42.918Z,101130.53
2022-07-25T20:12:47.333Z,101131.00
2022-07-25T20:17:50.206Z,101129.84
2022-07-25T20:22:54.728Z,101116.63
2022-07-25T20:28:00.644Z,101155.34
2022-07-25T20:33:05.563Z,101133.59
2022-07-25T20:38:12.404Z,101140.00
2022-07-25T20:43:18.343Z,101132.75
2022-07-25T20:48:21.334Z,101143.50
2022-07-25T20:53:24.516Z,101130.97
2022-07-25T20:58:28.713Z,101152.81
2022-07-25T21:03:32.073Z,101130.72
2022-07-25T21:08:34.961Z,101116.72
2022-07-25T21:13:40.496Z,101148.00
2022-07-25T21:18:43.785Z,101135.81
2022-07-25T21:23:46.685Z,101148.72
2022-07-25T21:28:50.870Z,101154.69
2022-07-25T21:33:53.888Z,101157.72
2022-07-25T21:38:58.205Z,101160.94
2022-07-25T21:44:03.044Z,101162.03
2022-07-25T21:49:42.056Z,101159.69
2022-07-25T21:54:48.331Z,101154.91
2022-07-25T21:59:52.537Z,101156.22
2022-07-25T22:04:55.508Z,101151.97
2022-07-25T22:09:58.518Z,101162.81
2022-07-25T22:15:04.114Z,101154.44
2022-07-25T22:20:07.890Z,101137.44
2022-07-25T22:25:11.236Z,101162.94
2022-07-25T22:30:19.376Z,101164.44
2022-07-25T22:35:22.720Z,101174.19
2022-07-25T22:40:25.895Z,101165.25
2022-07-25T22:45:30.390Z,101181.63
2022-07-25T22:50:35.077Z,101170.34
2022-07-25T22:55:38.180Z,101174.34
2022-07-25T23:00:42.692Z,101181.47
2022-07-25T23:05:45.579Z,101186.50
2022-07-25T23:10:48.704Z,101191.06
2022-07-25T23:15:53.051Z,101193.63
2022-07-25T23:20:56.230Z,101193.19
2022-07-25T23:26:00.273Z,101189.88
2022-07-25T23:31:04.711Z,101193.09
2022-07-25T23:36:09.327Z,101194.66
2022-07-25T23:41:12.129Z,101202.00
2022-07-25T23:46:16.431Z,101196.78
2022-07-25T23:51:21.370Z,101203.13
2022-07-25T23:56:24.480Z,101208.75
